Time;durP1;ratioP1;P1;durP2;ratioP2;P2;SDS_P1;SDS_P2;PMS_P1;PMS_P2;Temp;Humidity;BMP_temperature;BMP_pressure;BME280_temperature;BME280_humidity;BME280_pressure;Samples;Min_cycle;Max_cycle;Signal;HPM_P1;HPM_P2
2021/09/27 00:06:16;;;;;;;1999.90;999.90;;;;;;;18.71;73.60;101235.38;15604287;28;20454;-56
2021/09/27 00:13:53;;;;;;;1999.90;999.90;;;;;;;18.72;73.29;101234.19;15622559;28;20046;-57
2021/09/27 00:21:31;;;;;;;1999.90;999.90;;;;;;;18.33;75.42;101222.94;15587951;28;20077;-57
2021/09/27 00:29:05;;;;;;;1999.90;999.90;;;;;;;18.17;76.68;101223.03;15565208;28;20084;-54
2021/09/27 00:36:38;;;;;;;1999.90;999.90;;;;;;;18.23;75.92;101217.88;15619876;28;20051;-55
2021/09/27 00:44:11;;;;;;;1999.90;999.90;;;;;;;18.23;76.21;101214.25;15621044;28;20037;-54
2021/09/27 00:51:46;;;;;;;1999.90;999.90;;;;;;;18.16;76.74;101218.56;15602301;28;20049;-56
2021/09/27 00:59:23;;;;;;;1999.90;999.90;;;;;;;18.29;75.69;101221.22;15584817;28;20045;-57
2021/09/27 01:07:10;;;;;;;1999.90;999.90;;;;;;;18.13;76.84;101218.47;15619118;28;20096;-54
2021/09/27 01:15:02;;;;;;;1999.90;999.90;;;;;;;17.93;77.85;101216.88;15599487;28;20073;-58
2021/09/27 01:22:58;;;;;;;1999.90;999.90;;;;;;;17.86;78.07;101206.25;15600872;28;20041;-58
2021/09/27 01:30:51;;;;;;;1999.90;999.90;;;;;;;17.97;77.48;101204.47;15608516;28;20045;-59
2021/09/27 01:38:33;;;;;;;1999.90;999.90;;;;;;;17.88;78.23;101209.50;15617256;28;20091;-57
2021/09/27 01:46:14;;;;;;;1999.90;999.90;;;;;;;17.86;78.62;101228.81;15598632;28;20486;-59
2021/09/27 01:53:52;;;;;;;1999.90;999.90;;;;;;;17.93;78.36;101236.66;15567575;28;20050;-55
2021/09/27 02:01:52;;;;;;;1999.90;999.90;;;;;;;18.00;78.66;101259.34;15615647;28;20552;-56
2021/09/27 02:09:33;;;;;;;1999.90;999.90;;;;;;;18.32;77.26;101263.66;15614127;28;20053;-58
2021/09/27 02:17:10;;;;;;;1999.90;999.90;;;;;;;17.68;80.41;101267.91;15663281;22;20070;-54
2021/09/27 02:24:51;;;;;;;1999.90;999.90;;;;;;;17.67;80.83;101265.47;15695652;28;20489;-54
2021/09/27 02:32:31;;;;;;;1999.90;999.90;;;;;;;18.22;78.50;101272.75;15730715;28;20071;-57
2021/09/27 02:40:13;;;;;;;1999.90;999.90;;;;;;;18.22;78.38;101272.75;15744565;28;20105;-51
2021/09/27 02:47:50;;;;;;;1999.90;999.90;;;;;;;18.19;78.20;101273.50;15742955;28;20126;-55
2021/09/27 02:55:35;;;;;;;1999.90;999.90;;;;;;;18.04;79.63;101274.41;15734315;28;20373;-56
2021/09/27 03:03:14;;;;;;;1999.90;999.90;;;;;;;18.17;78.60;101275.88;15793235;28;20131;-54
2021/09/27 03:11:03;;;;;;;1999.90;999.90;;;;;;;18.06;79.74;101270.00;15758717;28;20487;-52
2021/09/27 03:18:50;;;;;;;1999.90;999.90;;;;;;;18.40;78.28;101265.47;15759992;28;20074;-58
2021/09/27 03:26:36;;;;;;;1999.90;999.90;;;;;;;18.19;79.12;101242.41;15706378;28;20473;-55
2021/09/27 03:34:14;;;;;;;1999.90;999.90;;;;;;;18.42;77.98;101236.81;15773615;28;20459;-54
2021/09/27 03:41:52;;;;;;;1999.90;999.90;;;;;;;18.25;78.93;101242.97;15737983;28;20102;-53
2021/09/27 03:49:33;;;;;;;1999.90;999.90;;;;;;;18.05;79.59;101239.31;15763711;28;20530;-56
2021/09/27 03:57:11;;;;;;;1999.90;999.90;;;;;;;17.68;82.02;101227.56;15752389;28;20130;-55
2021/09/27 04:04:53;;;;;;;1999.90;999.90;;;;;;;17.80;81.60;101239.56;15762230;28;20385;-57
2021/09/27 04:12:37;;;;;;;1999.90;999.90;;;;;;;17.87;81.34;101230.47;15781850;28;20043;-55
2021/09/27 04:20:16;;;;;;;1999.90;999.90;;;;;;;18.21;80.11;101237.22;15742333;28;20032;-54
2021/09/27 04:28:05;;;;;;;1999.90;999.90;;;;;;;18.08;80.55;101261.97;15752342;28;20046;-57
2021/09/27 04:35:46;;;;;;;1999.90;999.90;;;;;;;18.18;80.35;101274.69;15768947;28;20044;-51
2021/09/27 04:43:31;;;;;;;1999.90;999.90;;;;;;;18.11;81.29;101280.16;15778923;28;20071;-52
2021/09/27 04:51:12;;;;;;;1999.90;999.90;;;;;;;18.22;80.17;101294.53;15753612;28;20074;-56
2021/09/27 04:59:07;;;;;;;1999.90;999.90;;;;;;;18.25;80.55;101303.09;15759402;28;20114;-50
2021/09/27 05:07:01;;;;;;;1999.90;999.90;;;;;;;17.92;82.45;101289.44;15745781;28;20048;-53
2021/09/27 05:14:58;;;;;;;1999.90;999.90;;;;;;;18.22;81.63;101292.50;15745632;28;20040;-55
2021/09/27 05:22:54;;;;;;;1999.90;999.90;;;;;;;18.43;80.87;101298.59;15772129;28;20110;-56
2021/09/27 05:30:44;;;;;;;1999.90;999.90;;;;;;;18.58;80.00;101290.44;15710663;28;20094;-59
2021/09/27 05:38:29;;;;;;;1999.90;999.90;;;;;;;18.62;79.53;101277.19;15773931;28;20142;-56
2021/09/27 05:46:21;;;;;;;1999.90;999.90;;;;;;;18.83;79.04;101282.44;15767026;28;20048;-54
2021/09/27 05:54:02;;;;;;;1999.90;999.90;;;;;;;18.99;78.44;101283.97;15780019;28;20058;-54
2021/09/27 06:01:48;;;;;;;1999.90;999.90;;;;;;;19.14;77.58;101292.69;15797886;28;20048;-54
2021/09/27 06:09:35;;;;;;;1999.90;999.90;;;;;;;19.27;77.03;101282.81;15762578;28;20214;-56
2021/09/27 06:17:26;;;;;;;1999.90;999.90;;;;;;;19.28;76.78;101273.16;15797031;28;20134;-55
2021/09/27 06:25:05;;;;;;;1999.90;999.90;;;;;;;18.95;78.59;101257.63;15762474;28;20127;-53
2021/09/27 06:32:51;;;;;;;1999.90;999.90;;;;;;;19.37;78.39;101247.41;15740261;28;20080;-57
2021/09/27 06:40:23;;;;;;;1999.90;999.90;;;;;;;19.34;78.73;101248.97;15746172;28;20036;-53
2021/09/27 06:47:57;;;;;;;1999.90;999.90;;;;;;;19.56;78.40;101236.81;15745586;28;20044;-57
2021/09/27 06:55:29;;;;;;;1999.90;999.90;;;;;;;19.81;76.81;101253.38;15744898;28;20302;-56
2021/09/27 07:03:03;;;;;;;1999.90;999.90;;;;;;;19.98;75.54;101263.28;15745410;28;20055;-60
2021/09/27 07:10:36;;;;;;;1999.90;999.90;;;;;;;19.92;76.42;101254.31;15740496;28;20052;-57
2021/09/27 07:18:11;;;;;;;1999.90;999.90;;;;;;;20.31;74.74;101257.63;15742906;28;20520;-56
2021/09/27 07:25:43;;;;;;;1999.90;999.90;;;;;;;20.39;74.05;101252.88;15743017;28;20040;-53
2021/09/27 07:33:17;;;;;;;1999.90;999.90;;;;;;;20.18;75.71;101245.75;15740109;28;20130;-58
2021/09/27 07:40:50;;;;;;;1999.90;999.90;;;;;;;20.47;73.75;101254.63;15724288;28;20052;-56
2021/09/27 07:48:24;;;;;;;1999.90;999.90;;;;;;;20.43;74.11;101274.44;15739680;28;20516;-54
2021/09/27 07:55:57;;;;;;;1999.90;999.90;;;;;;;20.95;72.87;101277.44;15742086;28;20124;-56
2021/09/27 08:03:31;;;;;;;1999.90;999.90;;;;;;;20.66;72.88;101277.13;15740807;28;20151;-55
2021/09/27 08:11:04;;;;;;;1999.90;999.90;;;;;;;20.84;72.65;101270.81;15740022;28;20044;-59
2021/09/27 08:18:41;;;;;;;1999.90;999.90;;;;;;;21.04;71.76;101281.53;15704324;28;20475;-59
2021/09/27 08:26:13;;;;;;;1999.90;999.90;;;;;;;20.80;72.50;101278.47;15677502;28;20109;-59
2021/09/27 08:33:48;;;;;;;1999.90;999.90;;;;;;;21.48;71.25;101289.25;15675679;28;20125;-58
2021/09/27 08:41:26;;;;;;;1999.90;999.90;;;;;;;21.53;72.39;101288.88;15657966;28;20143;-54
2021/09/27 08:49:12;;;;;;;1999.90;999.90;;;;;;;21.63;72.92;101275.97;15675861;28;20194;-54
2021/09/27 08:56:55;;;;;;;1999.90;999.90;;;;;;;21.54;73.34;101269.81;15657058;28;20102;-59
2021/09/27 09:04:37;;;;;;;1999.90;999.90;;;;;;;21.45;72.47;101275.03;15675849;28;20557;-58
2021/09/27 09:12:20;;;;;;;1999.90;999.90;;;;;;;21.38;72.90;101277.81;15673982;28;20299;-59
2021/09/27 09:19:54;;;;;;;1999.90;999.90;;;;;;;21.41;73.06;101286.34;15673939;28;20065;-57
2021/09/27 09:27:26;;;;;;;1999.90;999.90;;;;;;;21.31;72.96;101289.94;15688969;28;20120;-59
2021/09/27 09:35:18;;;;;;;1999.90;999.90;;;;;;;21.04;73.14;101301.41;15732862;28;20105;-59
2021/09/27 09:42:58;;;;;;;1999.90;999.90;;;;;;;21.65;72.01;101301.94;15733526;28;20048;-58
2021/09/27 09:50:32;;;;;;;1999.90;999.90;;;;;;;21.86;70.07;101306.94;15732727;28;20128;-58
2021/09/27 09:58:07;;;;;;;1999.90;999.90;;;;;;;21.53;72.03;101299.41;15714110;28;20060;-58
2021/09/27 10:05:45;;;;;;;1999.90;999.90;;;;;;;22.45;68.81;101297.13;15713387;28;20058;-58
2021/09/27 10:13:30;;;;;;;1999.90;999.90;;;;;;;23.67;65.45;101301.00;15732934;28;20135;-59
2021/09/27 10:21:24;;;;;;;1999.90;999.90;;;;;;;24.12;62.11;101293.56;15732936;28;20072;-58
2021/09/27 10:29:04;;;;;;;1999.90;999.90;;;;;;;24.80;61.18;101289.59;15731621;28;20080;-58
2021/09/27 10:36:42;;;;;;;1999.90;999.90;;;;;;;24.83;60.66;101283.91;15731657;28;20465;-58
2021/09/27 10:44:17;;;;;;;1999.90;999.90;;;;;;;24.25;61.71;101287.41;15731293;28;20132;-59
2021/09/27 10:51:57;;;;;;;1999.90;999.90;;;;;;;24.28;61.21;101280.88;15704097;28;20068;-59
2021/09/27 10:59:36;;;;;;;1999.90;999.90;;;;;;;23.79;62.73;101286.34;15711265;28;20078;-59
2021/09/27 11:07:22;;;;;;;1999.90;999.90;;;;;;;23.79;63.40;101280.63;15726301;28;20040;-59
2021/09/27 11:15:03;;;;;;;1999.90;999.90;;;;;;;23.74;62.73;101283.88;15729561;28;20358;-59
2021/09/27 11:22:41;;;;;;;1999.90;999.90;;;;;;;23.67;63.55;101286.78;15722449;28;20485;-54
2021/09/27 11:30:35;;;;;;;1999.90;999.90;;;;;;;23.61;64.84;101294.91;15682735;28;20068;-59
2021/09/27 11:38:29;;;;;;;1999.90;999.90;;;;;;;23.22;65.43;101285.53;15692685;28;20560;-59
2021/09/27 11:46:22;;;;;;;1999.90;999.90;;;;;;;22.81;67.65;101290.72;15696441;28;20140;-58
2021/09/27 11:54:34;;;;;;;1999.90;999.90;;;;;;;22.91;67.82;101281.44;15735633;28;20132;-58
2021/09/27 12:02:21;;;;;;;1999.90;999.90;;;;;;;22.91;67.21;101262.31;15721764;28;20056;-59
2021/09/27 12:10:01;;;;;;;1999.90;999.90;;;;;;;23.18;66.86;101273.34;15739869;28;20041;-58
2021/09/27 12:17:36;;;;;;;1999.90;999.90;;;;;;;23.02;66.75;101265.19;15716512;28;20042;-58
2021/09/27 12:25:16;;;;;;;1999.90;999.90;;;;;;;22.79;67.01;101267.56;15716814;28;20400;-57
2021/09/27 12:32:52;;;;;;;1999.90;999.90;;;;;;;22.83;66.21;101266.38;15716713;28;20070;-59
2021/09/27 12:40:33;;;;;;;1999.90;999.90;;;;;;;23.26;66.42;101272.13;15729838;28;20051;-54
2021/09/27 12:48:09;;;;;;;1999.90;999.90;;;;;;;23.28;65.80;101281.06;15696388;28;20041;-58
2021/09/27 12:55:49;;;;;;;1999.90;999.90;;;;;;;23.25;66.10;101276.19;15733107;28;20458;-57
2021/09/27 13:03:27;;;;;;;1999.90;999.90;;;;;;;23.28;66.18;101275.38;15718247;28;20051;-57
2021/09/27 13:11:00;;;;;;;1999.90;999.90;;;;;;;23.05;67.05;101270.09;15713139;28;20060;-57
2021/09/27 13:18:44;;;;;;;1999.90;999.90;;;;;;;22.99;67.19;101263.97;15714048;28;20049;-56
2021/09/27 13:26:25;;;;;;;1999.90;999.90;;;;;;;22.96;67.30;101266.81;15732610;28;20474;-57
2021/09/27 13:34:00;;;;;;;1999.90;999.90;;;;;;;22.81;68.03;101259.44;15756774;28;20048;-55
2021/09/27 13:41:47;;;;;;;1999.90;999.90;;;;;;;22.99;67.67;101251.78;15737158;28;20055;-53
2021/09/27 13:49:20;;;;;;;1999.90;999.90;;;;;;;23.13;66.47;101239.56;15723807;28;20207;-55
2021/09/27 13:56:54;;;;;;;1999.90;999.90;;;;;;;22.67;67.58;101237.47;15731713;28;20089;-56
2021/09/27 14:04:26;;;;;;;1999.90;999.90;;;;;;;22.71;67.28;101235.44;15715790;28;20048;-57
2021/09/27 14:12:00;;;;;;;;;;;;;;;22.87;67.07;101235.09;15714208;28;20036;-55
2021/09/27 14:19:32;;;;;;;1999.90;999.90;;;;;;;22.68;67.48;101234.22;15672766;22;19927;-61
2021/09/27 14:27:06;;;;;;;1999.90;999.90;;;;;;;22.98;67.37;101236.72;15651001;28;20052;-59
2021/09/27 14:34:39;;;;;;;1999.90;999.90;;;;;;;22.79;67.79;101239.94;15583359;28;20054;-61
2021/09/27 14:42:12;;;;;;;1999.90;999.90;;;;;;;23.01;67.08;101243.63;15572700;28;20137;-61
2021/09/27 14:49:45;;;;;;;1999.90;999.90;;;;;;;22.95;67.40;101243.25;15605265;28;20033;-61
2021/09/27 14:57:19;;;;;;;1999.90;999.90;;;;;;;22.83;67.45;101240.75;15616383;28;20556;-62
2021/09/27 15:04:51;;;;;;;1999.90;999.90;;;;;;;22.80;67.14;101243.59;15617808;28;20194;-62
2021/09/27 15:12:25;;;;;;;1999.90;999.90;;;;;;;22.94;66.86;101243.66;15595926;28;20048;-62
2021/09/27 15:19:59;;;;;;;1999.90;999.90;;;;;;;22.79;67.10;101241.97;15621564;28;20801;-61
2021/09/27 15:27:33;;;;;;;1999.90;999.90;;;;;;;22.96;66.97;101241.22;15623102;28;20038;-60
2021/09/27 15:35:06;;;;;;;1999.90;999.90;;;;;;;22.62;67.77;101252.09;15594663;28;20425;-59
2021/09/27 15:42:40;;;;;;;1999.90;999.90;;;;;;;22.67;67.78;101246.81;15623203;28;20057;-60
2021/09/27 15:50:13;;;;;;;1999.90;999.90;;;;;;;22.63;68.30;101243.16;15615416;28;20223;-62
2021/09/27 15:57:48;;;;;;;1999.90;999.90;;;;;;;22.56;68.75;101243.13;15615306;28;20115;-62
2021/09/27 16:05:20;;;;;;;1999.90;999.90;;;;;;;22.32;69.87;101250.38;15616503;28;20053;-62
2021/09/27 16:12:54;;;;;;;1999.90;999.90;;;;;;;22.11;70.60;101242.59;15618797;28;20554;-61
2021/09/27 16:20:26;;;;;;;1999.90;999.90;;;;;;;22.01;70.79;101242.50;15620485;28;20053;-61
2021/09/27 16:28:01;;;;;;;1999.90;999.90;;;;;;;22.08;70.48;101251.09;15619263;28;20099;-62
2021/09/27 16:35:34;;;;;;;1999.90;999.90;;;;;;;22.04;70.84;101258.75;15617861;28;20518;-61
2021/09/27 16:43:08;;;;;;;;;;;;;;;21.82;71.89;101261.50;15619781;28;20053;-60
2021/09/27 16:50:40;;;;;;;1999.90;999.90;;;;;;;21.74;72.11;101265.50;15618641;28;19921;-61
2021/09/27 16:58:14;;;;;;;1999.90;999.90;;;;;;;21.86;72.05;101272.84;15614942;28;20041;-60
2021/09/27 17:05:46;;;;;;;1999.90;999.90;;;;;;;21.83;72.26;101285.84;15611674;28;20045;-61
2021/09/27 17:13:21;;;;;;;1999.90;999.90;;;;;;;21.70;72.69;101276.03;15615846;28;20049;-62
2021/09/27 17:20:55;;;;;;;1999.90;999.90;;;;;;;21.52;73.70;101277.91;15615702;28;20062;-62
2021/09/27 17:28:33;;;;;;;1999.90;999.90;;;;;;;21.10;75.67;101273.50;15614781;28;20049;-62
2021/09/27 17:36:06;;;;;;;1999.90;999.90;;;;;;;21.10;76.26;101270.66;15614643;28;20136;-62
2021/09/27 17:43:41;;;;;;;1999.90;999.90;;;;;;;21.05;76.68;101273.88;15597476;28;20034;-61
2021/09/27 17:51:14;;;;;;;1999.90;999.90;;;;;;;20.99;76.69;101267.72;15578911;28;20091;-61
2021/09/27 17:58:47;;;;;;;1999.90;999.90;;;;;;;20.91;76.72;101277.38;15577922;28;20045;-60
2021/09/27 18:06:20;;;;;;;1999.90;999.90;;;;;;;21.18;75.50;101268.72;15594922;28;20136;-63
2021/09/27 18:13:54;;;;;;;1999.90;999.90;;;;;;;20.99;76.48;101281.09;15594250;28;20379;-62
2021/09/27 18:21:27;;;;;;;1999.90;999.90;;;;;;;20.63;78.46;101280.72;15611866;28;20195;-62
2021/09/27 18:29:00;;;;;;;1999.90;999.90;;;;;;;21.07;76.86;101291.31;15611943;28;20033;-61
2021/09/27 18:36:33;;;;;;;1999.90;999.90;;;;;;;20.85;77.25;101281.78;15585587;28;20054;-61
2021/09/27 18:44:06;;;;;;;1999.90;999.90;;;;;;;20.89;77.09;101274.09;15571671;28;20049;-61
2021/09/27 18:51:39;;;;;;;1999.90;999.90;;;;;;;20.66;78.19;101279.97;15613834;28;20298;-61
2021/09/27 18:59:12;;;;;;;1999.90;999.90;;;;;;;20.78;77.86;101293.03;15595243;28;20103;-61
2021/09/27 19:06:45;;;;;;;1999.90;999.90;;;;;;;20.80;77.85;101286.97;15608055;28;20121;-61
2021/09/27 19:14:18;;;;;;;1999.90;999.90;;;;;;;20.87;77.14;101290.72;15576086;28;20049;-63
2021/09/27 19:21:51;;;;;;;1999.90;999.90;;;;;;;20.75;78.20;101308.00;15595029;28;20042;-60
2021/09/27 19:29:30;;;;;;;1999.90;999.90;;;;;;;20.72;78.02;101318.09;15612413;28;20045;-63
2021/09/27 19:37:10;;;;;;;1999.90;999.90;;;;;;;20.56;79.02;101314.69;15586227;28;20532;-62
2021/09/27 19:44:47;;;;;;;1999.90;999.90;;;;;;;20.77;77.72;101322.63;15604209;28;20041;-62
2021/09/27 19:52:20;;;;;;;1999.90;999.90;;;;;;;20.71;78.13;101322.13;15616877;28;20111;-62
2021/09/27 20:00:04;;;;;;;1999.90;999.90;;;;;;;20.67;78.16;101326.94;15623579;28;20505;-62
2021/09/27 20:07:48;;;;;;;1999.90;999.90;;;;;;;20.63;78.33;101313.91;15605354;28;20140;-62
2021/09/27 20:15:27;;;;;;;1999.90;999.90;;;;;;;20.60;78.74;101309.84;15622969;22;20386;-62
2021/09/27 20:23:00;;;;;;;1999.90;999.90;;;;;;;20.34;80.16;101310.72;15672826;28;20362;-59
2021/09/27 20:30:35;;;;;;;1999.90;999.90;;;;;;;20.60;78.83;101309.84;15694830;28;20089;-61
2021/09/27 20:38:10;;;;;;;1999.90;999.90;;;;;;;20.38;79.77;101310.78;15718876;28;20400;-61
2021/09/27 20:45:45;;;;;;;1999.90;999.90;;;;;;;20.57;78.66;101310.63;15716629;28;20056;-60
2021/09/27 20:53:18;;;;;;;1999.90;999.90;;;;;;;20.58;78.66;101314.28;15699015;28;20065;-59
2021/09/27 21:00:52;;;;;;;1999.90;999.90;;;;;;;20.55;78.65;101327.22;15663658;28;20036;-59
2021/09/27 21:08:26;;;;;;;1999.90;999.90;;;;;;;20.51;78.52;101325.53;15722627;28;20107;-61
2021/09/27 21:16:00;;;;;;;1999.90;999.90;;;;;;;20.41;78.72;101333.47;15695445;28;20071;-60
2021/09/27 21:23:34;;;;;;;1999.90;999.90;;;;;;;20.35;78.75;101328.56;15681826;28;20089;-58
2021/09/27 21:31:08;;;;;;;1999.90;999.90;;;;;;;20.35;78.44;101337.06;15698874;28;20128;-60
2021/09/27 21:38:40;;;;;;;1999.90;999.90;;;;;;;20.14;78.57;101338.41;15711523;28;20048;-59
2021/09/27 21:46:14;;;;;;;1999.90;999.90;;;;;;;19.99;79.73;101349.91;15693729;28;20135;-59
2021/09/27 21:53:47;;;;;;;1999.90;999.90;;;;;;;19.52;83.03;101332.16;15698778;28;20084;-59
2021/09/27 22:01:33;;;;;;;1999.90;999.90;;;;;;;19.94;80.78;101344.56;15718445;28;20378;-61
2021/09/27 22:09:09;;;;;;;1999.90;999.90;;;;;;;19.97;81.08;101353.13;15659963;28;20052;-57
2021/09/27 22:16:42;;;;;;;1999.90;999.90;;;;;;;19.89;79.83;101348.53;15711014;28;20130;-62
2021/09/27 22:24:18;;;;;;;1999.90;999.90;;;;;;;19.82;79.26;101366.25;15708117;28;20131;-59
2021/09/27 22:31:51;;;;;;;1999.90;999.90;;;;;;;19.67;79.35;101367.19;15674372;28;20208;-59
2021/09/27 22:39:24;;;;;;;1999.90;999.90;;;;;;;19.55;78.73;101367.38;15702407;28;20048;-59
2021/09/27 22:46:56;;;;;;;1999.90;999.90;;;;;;;19.28;79.08;101364.50;15714577;28;20045;-60
2021/09/27 22:54:30;;;;;;;1999.90;999.90;;;;;;;19.21;78.75;101367.19;15685220;28;20239;-60
2021/09/27 23:02:03;;;;;;;1999.90;999.90;;;;;;;19.11;79.01;101362.16;15668596;28;20067;-60
2021/09/27 23:09:36;;;;;;;1999.90;999.90;;;;;;;19.04;79.36;101371.31;15671982;28;20429;-59
2021/09/27 23:17:09;;;;;;;1999.90;999.90;;;;;;;19.00;79.51;101370.44;15728281;28;20043;-59
2021/09/27 23:24:43;;;;;;;1999.90;999.90;;;;;;;18.98;80.01;101369.19;15697057;28;20052;-58
2021/09/27 23:32:17;;;;;;;1999.90;999.90;;;;;;;18.98;80.15;101377.69;15663133;28;20033;-59
2021/09/27 23:39:51;;;;;;;1999.90;999.90;;;;;;;18.96;80.20;101391.34;15681017;28;20037;-60
2021/09/27 23:47:23;;;;;;;1999.90;999.90;;;;;;;18.92;80.24;101396.13;15658284;28;20041;-60
2021/09/27 23:54:57;;;;;;;1999.90;999.90;;;;;;;18.95;80.54;101410.34;15714357;28;20088;-59
